Time;durP1;ratioP1;P1;durP2;ratioP2;P2;SDS_P1;SDS_P2;PMS_P1;PMS_P2;Temp;Humidity;BMP_temperature;BMP_pressure;BME280_temperature;BME280_humidity;BME280_pressure;Samples;Min_cycle;Max_cycle;Signal;HPM_P1;HPM_P2
2024/03/03 00:02:09;;;;;;;8.63;7.00;;;;;;;6.24;100.00;97122.66;15285089;19;20018;-59
2024/03/03 00:07:34;;;;;;;8.55;7.13;;;;;;;6.19;100.00;97122.31;15285057;19;20479;-58
2024/03/03 00:13:03;;;;;;;8.90;7.68;;;;;;;6.10;100.00;97121.47;15284241;19;20085;-61
2024/03/03 00:18:28;;;;;;;8.07;7.03;;;;;;;6.04;100.00;97116.81;15276212;19;20014;-61
2024/03/03 00:23:53;;;;;;;8.00;7.20;;;;;;;6.00;100.00;97110.09;15288096;19;20367;-58
2024/03/03 00:29:20;;;;;;;9.70;7.88;;;;;;;5.95;100.00;97104.38;15299692;19;20400;-59
2024/03/03 00:34:46;;;;;;;10.43;7.53;;;;;;;5.88;100.00;97106.84;15036578;19;5002079;-59
2024/03/03 00:40:10;;;;;;;8.95;7.50;;;;;;;5.84;100.00;97105.53;15293685;19;20025;-57
2024/03/03 00:45:39;;;;;;;9.40;7.57;;;;;;;5.80;100.00;97097.00;15292251;19;20500;-55
2024/03/03 00:51:03;;;;;;;9.07;7.40;;;;;;;5.75;100.00;97091.31;15292331;19;20558;-59
2024/03/03 00:56:34;;;;;;;10.23;7.30;;;;;;;5.72;100.00;97088.97;15286831;19;20074;-60
2024/03/03 01:02:03;;;;;;;11.77;7.68;;;;;;;5.68;100.00;97084.97;15290057;19;20015;-59
2024/03/03 01:07:27;;;;;;;8.65;7.45;;;;;;;5.65;100.00;97074.59;15287793;19;20031;-59
2024/03/03 01:12:52;;;;;;;9.15;7.28;;;;;;;5.57;100.00;97074.56;15291574;19;20018;-58
2024/03/03 01:18:19;;;;;;;9.48;7.53;;;;;;;5.47;100.00;97074.69;15288853;19;20048;-59
2024/03/03 01:23:43;;;;;;;11.00;7.68;;;;;;;5.42;100.00;97075.19;15280735;19;20335;-55
2024/03/03 01:29:15;;;;;;;9.10;7.63;;;;;;;5.39;100.00;97073.69;15294154;19;20078;-58
2024/03/03 01:34:44;;;;;;;11.63;8.45;;;;;;;5.41;100.00;97073.53;15287600;19;20021;-59
2024/03/03 01:40:09;;;;;;;10.95;9.05;;;;;;;5.42;100.00;97063.66;15292301;19;20084;-60
2024/03/03 01:45:40;;;;;;;11.38;8.45;;;;;;;5.40;100.00;97061.16;15287965;19;20019;-56
2024/03/03 01:51:09;;;;;;;10.57;7.63;;;;;;;5.31;100.00;97059.47;15290329;19;20018;-62
2024/03/03 01:56:37;;;;;;;11.93;8.40;;;;;;;5.17;100.00;97055.59;15282935;19;20020;-60
2024/03/03 02:02:02;;;;;;;12.60;8.90;;;;;;;5.12;100.00;97058.72;15289684;19;20365;-58
2024/03/03 02:07:30;;;;;;;12.85;9.65;;;;;;;5.07;100.00;97055.72;15284947;19;20094;-61
2024/03/03 02:12:56;;;;;;;13.18;9.20;;;;;;;5.03;100.00;97059.69;15292412;19;20015;-60
2024/03/03 02:18:20;;;;;;;12.85;9.20;;;;;;;4.98;100.00;97060.16;15286084;19;20696;-57
2024/03/03 02:23:54;;;;;;;12.45;9.10;;;;;;;4.90;100.00;97063.63;15292819;19;20364;-55
2024/03/03 02:29:21;;;;;;;14.60;10.52;;;;;;;4.72;100.00;97054.88;15287310;19;20081;-57
2024/03/03 02:34:46;;;;;;;15.50;11.45;;;;;;;4.74;100.00;97052.88;15283843;19;20014;-58
2024/03/03 02:40:14;;;;;;;13.27;11.38;;;;;;;4.74;100.00;97045.69;15286457;19;20037;-57
2024/03/03 02:45:38;;;;;;;11.88;8.95;;;;;;;4.66;100.00;97053.66;15286281;19;20022;-59
2024/03/03 02:51:03;;;;;;;13.27;8.93;;;;;;;4.55;100.00;97045.94;15289465;19;20043;-58
2024/03/03 02:56:30;;;;;;;14.15;10.32;;;;;;;4.43;100.00;97037.34;15281640;19;20022;-59
2024/03/03 03:01:55;;;;;;;11.50;9.60;;;;;;;4.34;100.00;97033.81;15282320;19;20086;-56
2024/03/03 03:07:19;;;;;;;11.63;8.90;;;;;;;4.25;100.00;97042.72;15279284;19;20366;-58
2024/03/03 03:12:46;;;;;;;13.50;10.02;;;;;;;4.12;100.00;97056.44;15287380;19;20074;-59
2024/03/03 03:18:12;;;;;;;12.10;10.32;;;;;;;3.99;100.00;97052.34;15282287;19;20010;-55
2024/03/03 03:23:37;;;;;;;12.48;9.23;;;;;;;3.90;100.00;97057.75;15286591;19;20486;-59
2024/03/03 03:29:04;;;;;;;12.13;10.07;;;;;;;3.76;100.00;97067.13;15289479;19;20027;-56
2024/03/03 03:34:30;;;;;;;14.95;11.85;;;;;;;3.63;100.00;97054.19;15283820;19;20024;-58
2024/03/03 03:39:54;;;;;;;16.10;13.43;;;;;;;3.58;100.00;97046.66;15283704;19;20471;-59
2024/03/03 03:45:21;;;;;;;19.60;14.80;;;;;;;3.65;100.00;97055.72;15282867;19;20015;-58
2024/03/03 03:50:47;;;;;;;17.50;13.60;;;;;;;3.67;100.00;97053.75;15285480;19;20473;-57
2024/03/03 03:56:18;;;;;;;22.55;15.60;;;;;;;3.67;100.00;97040.41;15285505;19;20045;-61
2024/03/03 04:01:45;;;;;;;22.57;17.03;;;;;;;3.68;100.00;97046.56;15299794;19;20024;-58
2024/03/03 04:07:10;;;;;;;20.60;14.75;;;;;;;3.67;100.00;97053.75;15295256;19;20609;-58
2024/03/03 04:12:35;;;;;;;15.45;12.45;;;;;;;3.55;100.00;97049.63;15299078;19;20090;-57
2024/03/03 04:18:02;;;;;;;19.25;13.48;;;;;;;3.32;100.00;97050.03;15291491;19;20038;-59
2024/03/03 04:23:27;;;;;;;18.50;14.23;;;;;;;3.26;100.00;97061.28;15294965;19;20530;-59
2024/03/03 04:28:51;;;;;;;18.75;13.93;;;;;;;3.23;100.00;97066.91;15295534;19;20364;-60
2024/03/03 04:34:18;;;;;;;14.48;11.98;;;;;;;3.15;100.00;97056.16;15291704;19;20094;-59
2024/03/03 04:39:43;;;;;;;15.00;12.20;;;;;;;3.05;100.00;97053.56;15289268;19;20757;-58
2024/03/03 04:45:09;;;;;;;19.50;15.18;;;;;;;2.94;100.00;97046.59;15293344;19;20097;-59
2024/03/03 04:50:36;;;;;;;26.17;19.83;;;;;;;2.97;100.00;97035.69;15298801;19;20025;-59
2024/03/03 04:56:01;;;;;;;39.65;26.45;;;;;;;3.29;100.00;97031.72;15293527;19;20022;-59
2024/03/03 05:01:26;;;;;;;35.15;25.13;;;;;;;3.67;100.00;97021.78;15291704;19;20021;-58
2024/03/03 05:06:53;;;;;;;30.52;23.25;;;;;;;3.89;100.00;97024.09;15294072;19;20037;-59
2024/03/03 05:12:19;;;;;;;18.70;15.57;;;;;;;3.79;100.00;97029.53;15295551;19;20367;-60
2024/03/03 05:17:44;;;;;;;18.58;15.93;;;;;;;3.54;100.00;97031.97;15299922;19;20499;-59
2024/03/03 05:23:15;;;;;;;17.73;14.55;;;;;;;3.41;100.00;97036.81;15297296;19;20074;-59
2024/03/03 05:28:40;;;;;;;17.48;13.55;;;;;;;3.27;100.00;97035.50;15300611;19;20037;-58
2024/03/03 05:34:04;;;;;;;18.42;14.18;;;;;;;3.16;100.00;97049.84;15317164;19;20467;-60
2024/03/03 05:39:31;;;;;;;17.20;13.65;;;;;;;3.04;100.00;97049.22;15292171;19;20006;-61
2024/03/03 05:44:56;;;;;;;22.00;16.17;;;;;;;3.01;100.00;97052.16;15291964;19;20041;-60
2024/03/03 05:50:21;;;;;;;21.15;16.73;;;;;;;2.97;100.00;97051.63;15288709;19;20109;-60
2024/03/03 05:55:48;;;;;;;27.15;20.58;;;;;;;3.01;100.00;97045.00;15286707;19;20094;-60
2024/03/03 06:01:13;;;;;;;29.20;20.42;;;;;;;3.12;100.00;97054.63;15289844;19;20026;-53
2024/03/03 06:06:37;;;;;;;32.92;23.02;;;;;;;3.23;100.00;97048.28;15287044;19;20019;-52
2024/03/03 06:12:05;;;;;;;32.67;22.63;;;;;;;3.30;100.00;97041.38;15289141;19;20082;-54
2024/03/03 06:17:30;;;;;;;35.55;24.58;;;;;;;3.33;100.00;97045.53;15293570;19;20085;-52
2024/03/03 06:22:55;;;;;;;37.20;25.35;;;;;;;3.49;100.00;97042.22;15291765;19;20014;-49
2024/03/03 06:28:22;;;;;;;41.33;25.77;;;;;;;3.67;100.00;97039.56;15293540;19;20021;-50
2024/03/03 06:33:48;;;;;;;39.83;25.13;;;;;;;3.80;100.00;97055.19;15291997;19;20010;-50
2024/03/03 06:39:14;;;;;;;34.25;22.85;;;;;;;3.87;100.00;97056.25;15282900;19;20029;-53
2024/03/03 06:44:42;;;;;;;33.95;23.80;;;;;;;3.96;100.00;97043.84;15275361;19;20014;-55
2024/03/03 06:50:08;;;;;;;33.70;23.30;;;;;;;4.06;100.00;97055.25;15279549;19;20042;-49
2024/03/03 06:55:33;;;;;;;34.15;23.77;;;;;;;4.20;100.00;97059.19;15289757;19;20022;-50
2024/03/03 07:01:00;;;;;;;33.35;24.27;;;;;;;4.35;100.00;97061.28;15286096;19;20044;-50
2024/03/03 07:06:26;;;;;;;33.22;22.58;;;;;;;4.45;100.00;97054.03;15282861;19;20090;-50
2024/03/03 07:11:50;;;;;;;30.80;22.05;;;;;;;4.57;100.00;97047.44;15269990;19;20094;-50
2024/03/03 07:17:18;;;;;;;28.88;21.15;;;;;;;4.68;100.00;97041.00;15280188;19;20028;-49
2024/03/03 07:22:42;;;;;;;26.92;19.83;;;;;;;4.77;100.00;97049.88;15288287;19;20104;-49
2024/03/03 07:28:07;;;;;;;23.70;18.02;;;;;;;4.84;100.00;97050.06;15290480;19;20018;-49
2024/03/03 07:33:35;;;;;;;26.92;19.38;;;;;;;4.94;100.00;97056.97;15303173;19;20025;-50
2024/03/03 07:39:00;;;;;;;25.63;18.88;;;;;;;5.06;100.00;97059.38;15298870;19;20035;-51
2024/03/03 07:44:24;;;;;;;25.27;18.75;;;;;;;5.17;100.00;97050.25;15298112;19;20014;-49
2024/03/03 07:49:51;;;;;;;23.55;18.38;;;;;;;5.34;100.00;97051.16;15290528;19;20011;-50
2024/03/03 07:55:17;;;;;;;15.43;13.73;;;;;;;5.44;100.00;97067.00;15303892;19;20463;-49
2024/03/03 08:00:47;;;;;;;14.80;12.90;;;;;;;5.35;100.00;97079.53;15298165;19;20025;-53
2024/03/03 08:06:15;;;;;;;16.60;13.85;;;;;;;5.34;100.00;97072.50;15294555;19;20037;-51
2024/03/03 08:11:43;;;;;;;21.35;16.83;;;;;;;5.50;100.00;97067.19;15295547;19;20050;-53
2024/03/03 08:17:07;;;;;;;17.73;14.98;;;;;;;5.71;100.00;97064.09;15294733;19;20029;-50
2024/03/03 08:22:35;;;;;;;18.30;15.57;;;;;;;5.96;100.00;97061.44;15291099;19;20029;-52
2024/03/03 08:28:05;;;;;;;17.77;13.95;;;;;;;6.20;100.00;97057.16;15301583;19;20597;-51
2024/03/03 08:33:30;;;;;;;15.68;13.50;;;;;;;6.42;100.00;97055.63;15298504;19;20016;-49
2024/03/03 08:38:57;;;;;;;16.38;13.15;;;;;;;6.58;100.00;97054.78;15297366;19;20020;-50
2024/03/03 08:44:22;;;;;;;13.93;12.20;;;;;;;6.78;100.00;97041.84;15290618;19;20009;-51
2024/03/03 08:49:46;;;;;;;15.80;12.73;;;;;;;7.01;100.00;97034.91;15298207;19;20025;-50
2024/03/03 08:55:13;;;;;;;16.05;13.25;;;;;;;7.24;100.00;97040.34;15261519;19;20017;-50
2024/03/03 09:00:39;;;;;;;15.20;12.68;;;;;;;7.43;100.00;97040.94;15295212;19;20023;-53
2024/03/03 09:06:04;;;;;;;15.32;12.02;;;;;;;7.63;100.00;97036.78;15293907;19;20078;-51
2024/03/03 09:11:32;;;;;;;14.55;12.00;;;;;;;7.86;100.00;97020.75;15288886;19;20014;-50
2024/03/03 09:16:57;;;;;;;12.98;11.38;;;;;;;8.07;100.00;97026.44;15298447;19;20010;-52
2024/03/03 09:22:21;;;;;;;12.65;10.40;;;;;;;8.30;100.00;97010.31;15293022;19;20081;-51
2024/03/03 09:27:48;;;;;;;11.27;8.88;;;;;;;8.59;100.00;97011.41;15274477;19;20014;-49
2024/03/03 09:33:14;;;;;;;11.25;9.27;;;;;;;8.93;100.00;97010.06;15285612;19;20022;-49
2024/03/03 09:38:39;;;;;;;11.20;8.95;;;;;;;9.23;100.00;97008.16;15279995;19;20028;-52
2024/03/03 09:44:11;;;;;;;8.75;7.85;;;;;;;9.56;100.00;96994.28;15283040;19;20010;-51
2024/03/03 09:49:40;;;;;;;11.63;8.32;;;;;;;9.78;100.00;96982.69;15291326;19;20011;-53
2024/03/03 09:55:05;;;;;;;11.77;8.10;;;;;;;9.97;100.00;96990.13;15288126;19;20831;-49
2024/03/03 10:00:34;;;;;;;9.65;7.78;;;;;;;10.10;100.00;96992.09;15287250;19;20018;-51
2024/03/03 10:06:02;;;;;;;8.98;7.97;;;;;;;10.27;100.00;96991.84;15286397;19;20351;-51
2024/03/03 10:11:28;;;;;;;8.60;7.70;;;;;;;10.33;100.00;96986.50;15287415;19;20017;-53
2024/03/03 10:16:56;;;;;;;9.30;8.30;;;;;;;10.36;100.00;96987.97;15291260;19;20014;-48
2024/03/03 10:22:22;;;;;;;9.13;7.90;;;;;;;10.47;100.00;96987.47;15291848;19;20125;-49
2024/03/03 10:27:49;;;;;;;9.57;7.65;;;;;;;10.60;100.00;96975.94;15295211;19;20025;-50
2024/03/03 10:33:17;;;;;;;8.40;7.60;;;;;;;10.75;100.00;96970.47;15285155;19;20019;-49
2024/03/03 10:38:41;;;;;;;9.02;7.63;;;;;;;10.95;100.00;96970.53;15284777;19;20018;-54
2024/03/03 10:44:07;;;;;;;8.52;7.18;;;;;;;11.16;100.00;96973.34;15279672;19;20019;-54
2024/03/03 10:49:34;;;;;;;7.32;6.55;;;;;;;11.32;100.00;96967.63;15285459;19;20014;-54
2024/03/03 10:54:59;;;;;;;7.18;5.95;;;;;;;11.53;100.00;96976.59;15280733;19;20016;-53
2024/03/03 11:00:24;;;;;;;7.57;6.68;;;;;;;11.64;100.00;96962.50;15286806;19;20078;-54
2024/03/03 11:05:54;;;;;;;7.70;6.60;;;;;;;11.70;100.00;96958.97;15283432;19;20349;-50
2024/03/03 11:11:20;;;;;;;7.10;6.40;;;;;;;11.71;100.00;96946.34;15283285;19;20018;-51
2024/03/03 11:16:53;;;;;;;9.90;7.80;;;;;;;11.83;100.00;96954.66;15283631;19;20081;-53
2024/03/03 11:22:26;;;;;;;8.10;7.30;;;;;;;11.93;100.00;96955.09;15285266;19;20086;-48
2024/03/03 11:27:56;;;;;;;7.35;6.40;;;;;;;11.97;100.00;96950.94;15286583;19;20010;-52
2024/03/03 11:33:21;;;;;;;9.05;7.10;;;;;;;12.08;100.00;96956.78;15032205;19;5002022;-54
2024/03/03 11:38:49;;;;;;;8.07;7.28;;;;;;;12.17;100.00;96948.28;15282839;19;20010;-49
2024/03/03 11:44:14;;;;;;;7.68;6.88;;;;;;;12.26;100.00;96943.50;15288232;19;20018;-52
2024/03/03 11:49:42;;;;;;;8.05;7.25;;;;;;;12.33;100.00;96943.50;15280529;19;20058;-50
2024/03/03 11:55:11;;;;;;;7.93;7.07;;;;;;;12.41;100.00;96935.19;15279965;19;20833;-48
2024/03/03 12:00:37;;;;;;;7.97;7.18;;;;;;;12.49;100.00;96921.44;15281069;19;20014;-54
2024/03/03 12:06:02;;;;;;;6.68;6.07;;;;;;;12.61;100.00;96926.19;15279285;19;20018;-47
2024/03/03 12:11:30;;;;;;;7.50;6.70;;;;;;;12.71;100.00;96917.66;15281384;19;20019;-47
2024/03/03 12:16:54;;;;;;;8.32;7.53;;;;;;;12.89;100.00;96908.88;15285338;19;20014;-48
2024/03/03 12:22:19;;;;;;;10.30;8.30;;;;;;;12.95;100.00;96916.97;15296310;19;20014;-48
2024/03/03 12:27:46;;;;;;;10.15;8.00;;;;;;;12.97;100.00;96916.72;15297917;19;20047;-49
2024/03/03 12:33:13;;;;;;;9.40;7.72;;;;;;;12.99;100.00;96908.44;15294596;19;20620;-47
2024/03/03 12:38:39;;;;;;;9.23;8.30;;;;;;;13.09;100.00;96903.41;15300078;19;20011;-53
2024/03/03 12:44:10;;;;;;;9.02;8.10;;;;;;;13.29;100.00;96907.88;15296409;19;20085;-48
2024/03/03 12:49:34;;;;;;;8.63;7.65;;;;;;;13.48;100.00;96908.84;15291976;19;20394;-48
2024/03/03 12:54:59;;;;;;;8.60;6.88;;;;;;;13.67;100.00;96905.16;15294901;19;20021;-48
2024/03/03 13:00:28;;;;;;;8.20;6.32;;;;;;;13.88;100.00;96903.13;15291731;19;20026;-47
2024/03/03 13:05:59;;;;;;;7.45;6.75;;;;;;;14.09;100.00;96895.72;15290399;19;20018;-50
2024/03/03 13:11:25;;;;;;;6.35;5.40;;;;;;;14.26;100.00;96901.38;15284321;19;20654;-52
2024/03/03 13:16:52;;;;;;;5.88;5.32;;;;;;;14.52;100.00;96889.44;15284353;19;20018;-50
2024/03/03 13:22:20;;;;;;;6.05;5.20;;;;;;;14.76;100.00;96878.81;15293356;19;20040;-48
2024/03/03 13:27:45;;;;;;;5.53;5.03;;;;;;;15.04;100.00;96886.38;15295661;19;20021;-50
2024/03/03 13:33:12;;;;;;;5.40;4.90;;;;;;;15.37;100.00;96881.59;15293389;19;20350;-50
2024/03/03 13:38:41;;;;;;;5.13;4.40;;;;;;;15.67;100.00;96881.56;15288291;19;20021;-47
2024/03/03 13:44:07;;;;;;;5.00;4.50;;;;;;;15.93;100.00;96876.81;15288260;19;20040;-48
2024/03/03 13:49:35;;;;;;;5.05;4.40;;;;;;;16.03;100.00;96881.66;15293303;19;20014;-47
2024/03/03 13:55:00;;;;;;;5.95;4.47;;;;;;;16.09;100.00;96890.75;15292417;19;20039;-50
2024/03/03 14:00:25;;;;;;;5.20;4.50;;;;;;;16.25;100.00;96887.34;15289778;19;20082;-49
2024/03/03 14:05:53;;;;;;;5.65;4.25;;;;;;;16.49;100.00;96884.63;15297018;19;20026;-49
2024/03/03 14:11:17;;;;;;;5.47;4.50;;;;;;;16.81;100.00;96888.84;15285355;19;20018;-51
2024/03/03 14:16:42;;;;;;;5.40;4.90;;;;;;;17.06;100.00;96885.88;15288068;19;20006;-52
2024/03/03 14:22:09;;;;;;;5.40;4.63;;;;;;;16.93;100.00;96884.22;15290441;19;20026;-48
2024/03/03 14:27:35;;;;;;;6.20;4.57;;;;;;;16.86;100.00;96878.91;15034949;19;5002159;-50
2024/03/03 14:32:59;;;;;;;5.38;4.88;;;;;;;16.70;100.00;96872.31;15259569;19;20043;-53
2024/03/03 14:38:27;;;;;;;5.40;4.90;;;;;;;16.64;100.00;96876.78;15280385;19;20011;-48
2024/03/03 14:43:51;;;;;;;5.90;5.05;;;;;;;16.78;100.00;96876.53;15291906;19;20029;-49
2024/03/03 14:49:19;;;;;;;5.22;4.72;;;;;;;16.87;100.00;96875.13;15284439;19;20571;-48
2024/03/03 14:54:47;;;;;;;5.65;5.13;;;;;;;16.92;100.00;96882.56;15288316;19;20032;-48
2024/03/03 15:00:13;;;;;;;5.70;5.10;;;;;;;16.96;100.00;96891.09;15286766;19;20026;-52
2024/03/03 15:05:37;;;;;;;5.70;5.10;;;;;;;16.99;100.00;96896.06;15284256;19;20072;-49
2024/03/03 15:11:06;;;;;;;7.07;5.10;;;;;;;17.13;100.00;96891.97;15287131;19;20022;-51
2024/03/03 15:16:30;;;;;;;4.82;4.32;;;;;;;17.45;100.00;96901.59;15288030;19;20018;-47
2024/03/03 15:21:56;;;;;;;4.95;4.45;;;;;;;17.80;100.00;96892.41;15280007;19;20055;-49
2024/03/03 15:27:23;;;;;;;5.70;5.20;;;;;;;17.85;100.00;96885.16;15289551;19;20027;-49
2024/03/03 15:32:49;;;;;;;6.43;5.25;;;;;;;17.83;100.00;96897.38;15284559;19;20044;-49
2024/03/03 15:38:13;;;;;;;5.63;5.03;;;;;;;17.61;100.00;96889.06;15286842;19;20370;-51
2024/03/03 15:43:47;;;;;;;5.40;4.90;;;;;;;17.23;100.00;96892.19;15286208;19;20253;-52
2024/03/03 15:49:17;;;;;;;7.38;5.40;;;;;;;17.04;100.00;96896.16;15294615;19;20011;-48
2024/03/03 15:54:42;;;;;;;6.00;5.40;;;;;;;16.90;100.00;96903.75;15294806;19;20357;-50
2024/03/03 16:00:11;;;;;;;6.57;5.93;;;;;;;16.64;100.00;96895.00;15301529;19;20039;-50
2024/03/03 16:05:36;;;;;;;6.15;5.55;;;;;;;16.32;100.00;96898.94;15302518;19;20541;-48
2024/03/03 16:11:00;;;;;;;6.97;5.65;;;;;;;16.06;100.00;96904.78;15300116;19;20026;-49
2024/03/03 16:16:29;;;;;;;6.70;6.10;;;;;;;15.73;100.00;96909.69;15301200;19;20016;-49
2024/03/03 16:21:53;;;;;;;6.10;5.50;;;;;;;15.45;100.00;96910.28;15298725;19;20086;-49
2024/03/03 16:27:18;;;;;;;6.45;5.65;;;;;;;14.99;100.00;96904.41;15297857;19;20022;-49
2024/03/03 16:32:45;;;;;;;6.60;6.00;;;;;;;14.55;100.00;96910.69;15296036;19;20508;-48
2024/03/03 16:38:10;;;;;;;6.45;5.85;;;;;;;14.07;100.00;96914.84;15302374;19;20014;-50
2024/03/03 16:43:35;;;;;;;7.30;6.07;;;;;;;13.70;100.00;96917.44;15295188;19;20025;-51
2024/03/03 16:49:03;;;;;;;7.10;6.18;;;;;;;13.35;100.00;96920.50;15291680;19;20483;-49
2024/03/03 16:54:28;;;;;;;7.03;6.30;;;;;;;13.07;100.00;96917.09;15286652;19;20043;-49
2024/03/03 16:59:56;;;;;;;7.75;6.95;;;;;;;12.77;100.00;96928.44;15293263;19;20018;-48
2024/03/03 17:05:24;;;;;;;8.30;7.38;;;;;;;12.51;100.00;96929.34;15289949;19;20031;-48
2024/03/03 17:10:49;;;;;;;7.97;7.18;;;;;;;12.19;100.00;96931.84;15290740;19;20098;-49
2024/03/03 17:16:21;;;;;;;7.80;7.00;;;;;;;11.97;100.00;96942.00;15297591;19;20042;-50
2024/03/03 17:21:52;;;;;;;8.18;7.38;;;;;;;11.77;100.00;96933.91;15292971;19;20025;-53
2024/03/03 17:27:17;;;;;;;8.75;7.50;;;;;;;11.62;100.00;96940.31;15295686;19;20759;-49
2024/03/03 17:32:42;;;;;;;8.35;7.47;;;;;;;11.51;100.00;96940.91;15289208;19;20078;-52
2024/03/03 17:38:09;;;;;;;8.95;8.05;;;;;;;11.43;100.00;96950.00;15290796;19;20011;-48
2024/03/03 17:43:35;;;;;;;9.23;7.55;;;;;;;11.34;100.00;96957.47;15292353;19;20491;-48
2024/03/03 17:48:59;;;;;;;7.70;6.90;;;;;;;11.25;100.00;96964.88;15288333;19;20018;-47
2024/03/03 17:54:27;;;;;;;8.10;7.30;;;;;;;11.17;100.00;96965.03;15283323;19;20022;-47
2024/03/03 17:59:52;;;;;;;8.35;7.53;;;;;;;11.07;100.00;96972.69;15295987;19;20030;-47
2024/03/03 18:05:22;;;;;;;8.82;7.55;;;;;;;10.95;100.00;96975.13;15291093;19;20026;-49
2024/03/03 18:10:49;;;;;;;9.30;8.30;;;;;;;10.86;100.00;96981.72;15282823;19;20022;-50
2024/03/03 18:16:14;;;;;;;9.40;8.50;;;;;;;10.77;100.00;97006.09;15291205;19;20015;-51
2024/03/03 18:21:38;;;;;;;9.45;8.45;;;;;;;10.66;100.00;97000.44;15291261;19;20018;-53
2024/03/03 18:27:07;;;;;;;9.52;8.50;;;;;;;10.50;100.00;97010.47;15287961;19;20049;-50
2024/03/03 18:32:31;;;;;;;10.02;8.50;;;;;;;10.42;100.00;97003.38;15285663;19;20021;-53
2024/03/03 18:37:57;;;;;;;9.05;8.25;;;;;;;10.36;100.00;97003.28;15280274;19;20024;-50
2024/03/03 18:43:24;;;;;;;9.55;8.48;;;;;;;10.35;100.00;96998.94;15286952;19;20036;-50
2024/03/03 18:48:52;;;;;;;10.52;8.07;;;;;;;10.31;100.00;97002.03;15293429;19;20014;-52
2024/03/03 18:54:16;;;;;;;9.05;8.13;;;;;;;10.26;100.00;97006.31;15287566;19;20386;-50
2024/03/03 18:59:44;;;;;;;9.32;8.27;;;;;;;10.15;100.00;97013.06;15292749;19;20028;-49
2024/03/03 19:05:09;;;;;;;10.68;9.43;;;;;;;10.09;100.00;97013.84;15281829;19;20531;-49
2024/03/03 19:10:34;;;;;;;9.27;8.35;;;;;;;9.97;100.00;97022.41;15280686;19;20011;-51
2024/03/03 19:16:03;;;;;;;10.00;8.65;;;;;;;9.90;100.00;97026.06;15286075;19;20053;-49
2024/03/03 19:21:29;;;;;;;9.55;8.65;;;;;;;9.84;100.00;97019.59;15283601;19;20047;-51
2024/03/03 19:26:55;;;;;;;10.52;9.40;;;;;;;9.75;100.00;97013.50;15298860;19;20018;-53
2024/03/03 19:32:23;;;;;;;10.13;8.98;;;;;;;9.60;100.00;97024.31;15297200;19;20082;-49
2024/03/03 19:37:47;;;;;;;9.68;8.68;;;;;;;9.47;100.00;97022.28;15301336;19;20021;-51
2024/03/03 19:43:12;;;;;;;9.85;8.85;;;;;;;9.37;100.00;97032.50;15299850;19;20415;-50
2024/03/03 19:48:39;;;;;;;11.70;9.80;;;;;;;9.25;100.00;97035.66;15296060;19;20018;-50
2024/03/03 19:54:04;;;;;;;11.30;10.20;;;;;;;9.08;100.00;97031.53;15298914;19;20050;-50
2024/03/03 19:59:28;;;;;;;12.02;9.93;;;;;;;8.97;100.00;97038.19;15304112;19;20356;-53
2024/03/03 20:04:56;;;;;;;11.63;10.43;;;;;;;8.95;100.00;97045.59;15296266;19;20074;-50
2024/03/03 20:10:23;;;;;;;10.98;9.95;;;;;;;8.89;100.00;97044.47;15294403;19;20023;-50
2024/03/03 20:15:50;;;;;;;11.13;10.02;;;;;;;8.92;100.00;97049.50;15287601;19;20014;-52
2024/03/03 20:21:17;;;;;;;10.70;9.52;;;;;;;8.95;100.00;97045.59;15301617;19;20477;-49
2024/03/03 20:26:42;;;;;;;10.10;9.10;;;;;;;8.98;100.00;97044.41;15299661;19;20026;-52
2024/03/03 20:32:14;;;;;;;11.38;8.85;;;;;;;8.97;100.00;97038.19;15295638;19;20014;-51
2024/03/03 20:37:42;;;;;;;9.77;8.77;;;;;;;8.96;100.00;97044.56;15297678;19;20018;-50
2024/03/03 20:43:06;;;;;;;9.63;8.65;;;;;;;8.92;100.00;97051.34;15286391;19;20035;-50
2024/03/03 20:48:31;;;;;;;9.95;8.90;;;;;;;8.90;100.00;97059.56;15297800;19;20035;-50
2024/03/03 20:53:58;;;;;;;9.50;8.50;;;;;;;8.74;100.00;97060.59;15291066;19;20023;-50
2024/03/03 20:59:23;;;;;;;13.13;9.60;;;;;;;8.55;100.00;97063.81;15297038;19;20022;-50
2024/03/03 21:04:48;;;;;;;11.50;10.40;;;;;;;8.37;100.00;97064.09;15299232;19;20831;-49
2024/03/03 21:10:18;;;;;;;11.85;10.65;;;;;;;8.24;100.00;97065.53;15291030;19;20014;-50
2024/03/03 21:15:43;;;;;;;16.20;11.02;;;;;;;8.11;100.00;97068.84;15287373;19;20621;-50
2024/03/03 21:21:08;;;;;;;12.30;11.07;;;;;;;8.04;100.00;97075.09;15293780;19;20025;-50
2024/03/03 21:26:34;;;;;;;12.18;10.98;;;;;;;7.98;100.00;97073.94;15296664;19;20014;-50
2024/03/03 21:32:06;;;;;;;11.00;9.77;;;;;;;7.86;100.00;97077.03;15293427;19;20025;-54
2024/03/03 21:37:31;;;;;;;12.00;9.95;;;;;;;7.75;100.00;97079.28;15290707;19;20600;-50
2024/03/03 21:42:58;;;;;;;12.73;10.52;;;;;;;7.65;100.00;97066.94;15290434;19;20029;-49
2024/03/03 21:48:23;;;;;;;12.38;10.93;;;;;;;7.52;100.00;97080.06;15284546;19;20409;-49
2024/03/03 21:53:49;;;;;;;13.07;10.90;;;;;;;7.44;100.00;97080.94;15288876;19;20031;-50
2024/03/03 21:59:17;;;;;;;11.35;10.15;;;;;;;7.38;100.00;97085.16;15282997;19;20502;-49
2024/03/03 22:04:41;;;;;;;11.80;10.30;;;;;;;7.36;100.00;97084.47;15284549;19;20366;-50
2024/03/03 22:10:24;;;;;;;11.05;9.90;;;;;;;7.34;100.00;97093.72;15291647;19;20479;-50
2024/03/03 22:15:50;;;;;;;11.23;10.02;;;;;;;7.35;100.00;97090.84;15290480;19;20014;-50
2024/03/03 22:21:16;;;;;;;10.20;9.02;;;;;;;7.44;100.00;97099.69;15285996;19;20015;-49
2024/03/03 22:26:40;;;;;;;9.65;8.65;;;;;;;7.37;100.00;97102.22;15290561;19;20014;-51
2024/03/03 22:32:08;;;;;;;11.20;9.02;;;;;;;7.28;100.00;97105.97;15287801;19;20026;-49
2024/03/03 22:37:36;;;;;;;10.32;9.23;;;;;;;7.35;100.00;97114.97;15283765;19;20480;-52
2024/03/03 22:43:01;;;;;;;10.95;9.43;;;;;;;7.49;100.00;97110.75;15289602;19;20089;-49
2024/03/03 22:48:28;;;;;;;9.65;8.40;;;;;;;7.44;100.00;97112.28;15283825;19;20468;-49
2024/03/03 22:53:55;;;;;;;9.02;8.10;;;;;;;7.19;100.00;97120.38;15285110;19;20037;-49
2024/03/03 22:59:19;;;;;;;10.32;9.15;;;;;;;6.86;100.00;97117.78;15290015;19;20010;-49
2024/03/03 23:04:53;;;;;;;10.15;9.02;;;;;;;6.57;100.00;97127.19;15282754;19;20018;-49
2024/03/03 23:10:19;;;;;;;11.23;9.65;;;;;;;6.25;100.00;97126.19;15283910;19;20467;-50
2024/03/03 23:15:44;;;;;;;12.85;11.25;;;;;;;6.06;100.00;97130.81;15285164;19;20106;-49
2024/03/03 23:21:13;;;;;;;13.32;11.35;;;;;;;5.98;100.00;97131.63;15289285;19;20390;-50
2024/03/03 23:26:39;;;;;;;12.30;10.90;;;;;;;6.05;100.00;97139.88;15284717;19;20029;-49
2024/03/03 23:32:04;;;;;;;12.20;10.90;;;;;;;6.03;100.00;97139.19;15286121;19;20074;-49
2024/03/03 23:37:31;;;;;;;11.65;10.35;;;;;;;6.02;100.00;97140.19;15278466;19;20030;-49
2024/03/03 23:42:56;;;;;;;11.85;9.93;;;;;;;5.92;100.00;97147.47;15287383;19;20014;-49
2024/03/03 23:48:20;;;;;;;11.95;10.45;;;;;;;5.79;100.00;97161.28;15288820;19;20021;-49
2024/03/03 23:53:48;;;;;;;13.73;11.98;;;;;;;5.66;100.00;97149.22;15286486;19;20011;-50
2024/03/03 23:59:13;;;;;;;13.90;11.45;;;;;;;5.55;100.00;97169.06;15285270;19;20026;-49
